Hauptseite
METAR-TAF:

METAR-TAF

Flughäfen :

London Oxford Airport

Oxford, England

Breite: 51-50-13N, Länge: 1-19-12W, Höhe: 82 m

Beobachtung

Neuester Wetterbericht von vor 28 Minuten, um 07:20 UTC
Wind 3 kt aus Nord
Temperatur 8°C
Luftfeuchtigkeit 93%
Luftdruck 1027 hPa
Sichtweite: 9000 m

METAR: EGTK 180720Z 36003KT 9000 NSC 08/07 Q1027

Zeit: 08:48 (07:48 UTC)

Prognose

Neuester Wetterbericht von vor 1 Stunde und 9 Minuten, um 06:39 UTC
Gültige Prognose vom 18 um 06 UTC bis 18 um 15 UTC
Wind 7 kt aus Nord/Nordost
Sichtweite: 9000 m
Leicht bewölkt in der Höhe von 2000 ft
Übergehend zu
vom 18 um 06 UTC bis 18 um 09 UTC
Sichtweite 10 km oder mehr
Wahrscheinlichkeit 30% :
Zeitweise
vom 18 um 06 UTC bis 18 um 11 UTC
Durchbrochene Bewölkung in der Höhe von 1000 ft

TAF: EGTK 180639Z 1806/1815 03007KT 9000 FEW020 BECMG 1806/1809 9999 PROB30 TEMPO 1806/1811 BKN010

Wetterbeobachtungen und Prognosen von mehr als 4000 Flughäfen (METAR und TAF Bericht).

Die verfügbaren Stationen werden durch gelbe und rote Markierungen auf der Karte dargestellt.

Führen Sie die Maus auf sie, um den Namen der Station zu sehen.

Darauf klicken, um die Beobachtung von Wetterbeobachtungen und Prognosen zu sehen.

Um die Karte zu ändern : klicken Sie auf den grünen Tasten mit einem schwarzen Kreuz Zum Vergrößern, auf den grünen Button mit einem Gedankenstrich zu verkleinern, oder auf die grünen Pfeile für benachbarte Karten.


METAR-TAF: